Time;durP1;ratioP1;P1;durP2;ratioP2;P2;SDS_P1;SDS_P2;PMS_P1;PMS_P2;Temp;Humidity;BMP_temperature;BMP_pressure;BME280_temperature;BME280_humidity;BME280_pressure;Samples;Min_cycle;Max_cycle;Signal;HPM_P1;HPM_P2
2022/03/31 00:00:01;;;;;;;12.52;2.75;;;2.20;99.90;;;;;;4992926;28;20100;-49
2022/03/31 00:02:27;;;;;;;19.27;3.00;;;2.40;99.90;;;;;;5011931;28;20042;-50
2022/03/31 00:04:52;;;;;;;13.95;2.80;;;2.00;99.90;;;;;;5012556;28;20069;-45
2022/03/31 00:07:18;;;;;;;11.63;2.50;;;2.10;99.90;;;;;;5012274;28;20180;-44
2022/03/31 00:09:43;;;;;;;9.52;2.40;;;2.20;99.90;;;;;;4994227;28;20069;-48
2022/03/31 00:12:09;;;;;;;10.40;2.05;;;2.30;99.90;;;;;;5011075;28;20042;-47
2022/03/31 00:14:35;;;;;;;7.57;2.20;;;2.10;99.90;;;;;;5011811;28;20052;-45
2022/03/31 00:17:01;;;;;;;7.97;2.10;;;2.20;99.90;;;;;;5012137;28;20037;-47
2022/03/31 00:19:27;;;;;;;5.93;1.92;;;2.10;99.90;;;;;;5012035;28;20041;-47
2022/03/31 00:21:53;;;;;;;5.85;1.83;;;2.10;99.90;;;;;;5011693;28;20540;-44
2022/03/31 00:24:18;;;;;;;5.30;1.77;;;2.20;99.90;;;;;;4994310;28;20378;-43
2022/03/31 00:26:44;;;;;;;5.35;1.70;;;2.20;99.90;;;;;;5011802;28;20077;-46
2022/03/31 00:29:09;;;;;;;9.30;1.88;;;2.10;99.90;;;;;;5011932;28;20073;-48
2022/03/31 00:31:35;;;;;;;7.88;1.90;;;2.30;99.90;;;;;;5011851;28;20045;-47
2022/03/31 00:34:02;;;;;;;7.25;1.90;;;2.30;99.90;;;;;;5011788;28;20606;-48
2022/03/31 00:36:27;;;;;;;5.82;1.60;;;2.20;99.90;;;;;;5005283;28;20552;-45
2022/03/31 00:41:39;;;;;;;6.55;1.90;;;2.10;99.90;;;;;;5011796;28;20447;-46
2022/03/31 00:44:06;;;;;;;4.97;1.90;;;2.40;99.90;;;;;;5012063;28;20141;-44
2022/03/31 00:46:32;;;;;;;4.68;1.90;;;2.20;99.90;;;;;;5011685;28;20105;-49
2022/03/31 00:48:58;;;;;;;5.90;1.83;;;2.20;99.90;;;;;;5011458;28;20037;-43
2022/03/31 00:51:24;;;;;;;4.70;2.03;;;2.30;99.90;;;;;;5011370;28;20044;-48
2022/03/31 00:53:51;;;;;;;4.95;1.70;;;2.10;99.90;;;;;;5011770;28;20427;-43
2022/03/31 00:56:18;;;;;;;7.05;2.10;;;2.00;99.90;;;;;;5011050;28;20500;-50
2022/03/31 00:58:44;;;;;;;5.03;1.98;;;2.00;99.90;;;;;;5010691;28;20113;-47
2022/03/31 01:01:13;;;;;;;6.45;1.95;;;2.10;99.90;;;;;;5011342;28;20073;-48
2022/03/31 01:03:39;;;;;;;8.23;2.17;;;2.20;99.90;;;;;;5011125;28;20037;-45
2022/03/31 01:06:06;;;;;;;9.38;2.05;;;2.40;99.90;;;;;;5011415;28;20029;-49
2022/03/31 01:08:33;;;;;;;7.28;1.77;;;2.40;99.90;;;;;;5008741;28;20377;-46
2022/03/31 01:10:58;;;;;;;6.85;1.83;;;2.40;99.90;;;;;;5011226;28;20124;-44
2022/03/31 01:13:25;;;;;;;7.60;2.17;;;2.30;99.90;;;;;;5010814;28;20124;-45
2022/03/31 01:15:51;;;;;;;7.93;2.20;;;2.30;99.90;;;;;;5011269;28;20057;-43
2022/03/31 01:18:16;;;;;;;7.47;2.03;;;2.00;99.90;;;;;;5010856;28;20441;-45
2022/03/31 01:20:42;;;;;;;9.00;2.00;;;2.20;99.90;;;;;;5011133;28;20050;-45
2022/03/31 01:23:12;;;;;;;6.40;2.08;;;2.30;99.90;;;;;;5011220;28;20034;-46
2022/03/31 01:25:38;;;;;;;4.60;2.00;;;2.20;99.90;;;;;;5009371;28;20041;-49
2022/03/31 01:28:04;;;;;;;5.75;2.10;;;2.00;99.90;;;;;;5010852;28;20397;-45
2022/03/31 01:30:29;;;;;;;6.03;2.33;;;2.20;99.90;;;;;;5010589;28;20034;-47
2022/03/31 01:32:55;;;;;;;4.45;1.90;;;2.00;99.90;;;;;;5010641;28;20076;-46
2022/03/31 01:35:21;;;;;;;8.80;2.33;;;2.00;99.90;;;;;;5011135;28;20473;-47
2022/03/31 01:37:47;;;;;;;10.02;2.35;;;2.00;99.90;;;;;;5010415;28;20405;-45
2022/03/31 01:40:13;;;;;;;6.00;2.00;;;2.10;99.90;;;;;;5010878;28;20041;-47
2022/03/31 01:42:40;;;;;;;4.28;2.05;;;1.90;99.90;;;;;;5010682;28;20172;-46
2022/03/31 01:45:08;;;;;;;7.20;2.10;;;2.10;99.90;;;;;;5010249;28;20489;-44
2022/03/31 01:47:34;;;;;;;9.07;2.47;;;1.90;99.90;;;;;;5010520;28;20084;-47
2022/03/31 01:50:01;;;;;;;7.20;2.20;;;2.10;99.90;;;;;;5010782;28;20572;-48
2022/03/31 01:52:28;;;;;;;5.65;1.92;;;2.00;99.90;;;;;;5010604;28;20054;-45
2022/03/31 01:54:54;;;;;;;6.53;2.40;;;2.10;99.90;;;;;;5010750;28;20052;-44
2022/03/31 01:57:19;;;;;;;6.70;2.20;;;1.90;99.90;;;;;;5010267;28;20037;-44
2022/03/31 01:59:45;;;;;;;4.78;2.10;;;2.20;99.90;;;;;;5010412;28;20038;-47
2022/03/31 02:02:12;;;;;;;5.65;2.08;;;2.20;99.90;;;;;;5010435;28;20038;-45
2022/03/31 02:04:40;;;;;;;5.38;2.30;;;2.20;99.90;;;;;;5010597;28;20064;-45
2022/03/31 02:07:07;;;;;;;6.38;2.55;;;2.30;99.90;;;;;;5010441;28;20116;-45
2022/03/31 02:09:33;;;;;;;5.75;2.28;;;2.10;99.90;;;;;;5010464;28;20042;-46
2022/03/31 02:11:58;;;;;;;7.88;2.42;;;2.20;99.90;;;;;;5010256;28;20088;-45
2022/03/31 02:14:25;;;;;;;7.55;2.40;;;2.40;99.90;;;;;;5010425;28;20452;-46
2022/03/31 02:16:51;;;;;;;8.40;2.35;;;2.40;99.90;;;;;;5010434;28;20052;-45
2022/03/31 02:19:17;;;;;;;8.20;2.17;;;2.20;99.90;;;;;;5010652;28;20132;-45
2022/03/31 02:21:44;;;;;;;7.40;2.22;;;2.30;99.90;;;;;;5014121;28;21292;-45
2022/03/31 02:24:09;;;;;;;8.25;2.47;;;2.40;99.90;;;;;;5014134;28;20456;-46
2022/03/31 02:26:36;;;;;;;7.43;2.10;;;2.10;99.90;;;;;;5013639;28;20121;-48
2022/03/31 02:29:03;;;;;;;8.95;1.80;;;2.10;99.90;;;;;;5013682;28;20480;-46
2022/03/31 02:31:30;;;;;;;5.75;2.22;;;2.20;99.90;;;;;;5014227;28;20049;-47
2022/03/31 02:33:56;;;;;;;8.02;2.22;;;2.40;99.90;;;;;;5013050;28;20129;-48
2022/03/31 02:36:22;;;;;;;8.57;1.73;;;2.10;99.90;;;;;;5013805;28;20459;-44
2022/03/31 02:38:48;;;;;;;7.03;1.80;;;2.10;99.90;;;;;;5013691;28;20416;-45
2022/03/31 02:41:13;;;;;;;5.35;1.67;;;2.10;99.90;;;;;;5013683;28;20034;-47
2022/03/31 02:43:39;;;;;;;4.43;1.85;;;2.30;99.90;;;;;;5013979;28;20034;-46
2022/03/31 02:46:05;;;;;;;8.05;1.90;;;2.00;99.90;;;;;;5012613;28;20084;-49
2022/03/31 02:48:31;;;;;;;5.90;1.63;;;2.10;99.90;;;;;;5013665;28;20037;-46
2022/03/31 02:50:57;;;;;;;6.25;1.80;;;2.10;99.90;;;;;;5013759;28;20133;-47
2022/03/31 02:56:07;;;;;;;6.80;1.63;;;2.00;99.90;;;;;;5013092;28;20100;-43
2022/03/31 02:58:33;;;;;;;7.90;1.77;;;2.10;99.90;;;;;;5013848;28;20077;-45
2022/03/31 03:00:58;;;;;;;5.22;1.77;;;2.20;99.90;;;;;;5013804;28;20088;-44
2022/03/31 03:03:24;;;;;;;6.30;2.35;;;2.30;99.90;;;;;;5013649;28;20077;-46
2022/03/31 03:05:51;;;;;;;9.48;2.35;;;2.20;99.90;;;;;;5013510;28;20063;-45
2022/03/31 03:08:16;;;;;;;7.22;1.95;;;2.20;99.90;;;;;;4993834;28;20050;-45
2022/03/31 03:10:42;;;;;;;7.72;1.83;;;2.10;99.90;;;;;;4993732;28;20038;-47
2022/03/31 03:13:08;;;;;;;8.18;1.92;;;2.20;99.90;;;;;;5012961;28;20046;-47
2022/03/31 03:15:34;;;;;;;6.22;2.17;;;1.90;99.90;;;;;;5013440;28;20030;-47
2022/03/31 03:18:00;;;;;;;5.97;2.22;;;2.00;99.90;;;;;;5013459;28;20088;-46
2022/03/31 03:20:26;;;;;;;5.50;2.03;;;2.00;99.90;;;;;;5012985;28;20108;-46
2022/03/31 03:22:53;;;;;;;10.70;2.20;;;2.40;99.90;;;;;;4995757;28;20030;-46
2022/03/31 03:25:20;;;;;;;10.98;2.42;;;2.40;99.90;;;;;;5012428;28;20496;-50
2022/03/31 03:27:47;;;;;;;8.40;2.50;;;2.30;99.90;;;;;;5013340;28;20180;-42
2022/03/31 03:30:14;;;;;;;7.60;2.30;;;2.00;99.90;;;;;;5012462;28;20072;-47
2022/03/31 03:32:39;;;;;;;9.73;2.78;;;2.00;99.90;;;;;;5013207;28;20473;-46
2022/03/31 03:35:08;;;;;;;8.10;2.35;;;2.30;99.90;;;;;;5012933;28;20034;-48
2022/03/31 03:37:34;;;;;;;7.93;2.55;;;2.00;99.90;;;;;;5012674;28;20175;-48
2022/03/31 03:40:02;;;;;;;9.82;2.80;;;2.00;99.90;;;;;;5012246;28;20601;-45
2022/03/31 03:42:28;;;;;;;8.18;2.50;;;2.40;99.90;;;;;;5012781;28;20368;-46
2022/03/31 03:44:54;;;;;;;10.43;2.60;;;2.00;99.90;;;;;;5012585;28;20095;-47
2022/03/31 03:47:21;;;;;;;7.88;2.55;;;2.00;99.90;;;;;;4995361;28;20037;-45
2022/03/31 03:49:47;;;;;;;6.45;2.70;;;1.90;99.90;;;;;;5012700;28;20420;-45
2022/03/31 03:52:13;;;;;;;8.48;2.75;;;2.30;99.90;;;;;;4994855;28;20057;-45
2022/03/31 03:54:39;;;;;;;6.70;2.50;;;2.10;99.90;;;;;;5012688;28;20045;-45
2022/03/31 03:57:04;;;;;;;6.32;2.30;;;1.90;99.90;;;;;;5012180;28;20396;-45
2022/03/31 03:59:31;;;;;;;11.60;3.03;;;1.80;99.90;;;;;;4992669;28;20042;-45
2022/03/31 04:01:56;;;;;;;8.40;2.83;;;1.90;99.90;;;;;;4992829;28;20042;-46
2022/03/31 04:04:22;;;;;;;11.23;3.08;;;1.80;99.90;;;;;;5012031;28;20456;-44
2022/03/31 04:06:48;;;;;;;11.80;3.30;;;1.80;99.90;;;;;;5012443;28;20046;-46
2022/03/31 04:09:13;;;;;;;7.70;2.88;;;2.00;99.90;;;;;;5012121;28;20092;-49
2022/03/31 04:11:39;;;;;;;10.60;3.88;;;2.10;99.90;;;;;;5012308;28;20042;-46
2022/03/31 04:14:05;;;;;;;11.23;3.50;;;2.20;99.90;;;;;;5012056;28;20044;-48
2022/03/31 04:16:30;;;;;;;10.60;3.83;;;1.80;99.90;;;;;;5011940;28;20405;-43
2022/03/31 04:18:56;;;;;;;8.70;3.58;;;1.80;99.90;;;;;;5011903;28;20041;-48
2022/03/31 04:21:22;;;;;;;12.27;4.10;;;2.10;99.90;;;;;;5010520;28;20077;-47
2022/03/31 04:23:47;;;;;;;10.65;4.28;;;1.70;99.90;;;;;;5012062;28;20038;-46
2022/03/31 04:26:13;;;;;;;8.65;4.47;;;1.70;99.90;;;;;;5011144;28;20041;-47
2022/03/31 04:28:39;;;;;;;8.82;4.90;;;1.80;99.90;;;;;;5011892;28;20037;-46
2022/03/31 04:31:04;;;;;;;13.60;5.47;;;1.70;99.90;;;;;;5011909;28;20041;-44
2022/03/31 04:33:30;;;;;;;11.95;6.30;;;1.80;99.90;;;;;;5011794;28;20034;-48
2022/03/31 04:35:56;;;;;;;11.98;6.00;;;2.10;99.90;;;;;;5011462;28;20041;-45
2022/03/31 04:38:22;;;;;;;11.48;5.72;;;2.00;99.90;;;;;;5011706;28;20053;-44
2022/03/31 04:40:47;;;;;;;15.05;7.22;;;1.90;99.90;;;;;;5011699;28;20492;-47
2022/03/31 04:43:13;;;;;;;14.60;6.82;;;1.80;99.90;;;;;;5011035;28;20045;-47
2022/03/31 04:45:39;;;;;;;17.08;7.28;;;2.00;99.90;;;;;;5011535;28;20448;-47
2022/03/31 04:48:05;;;;;;;15.90;7.50;;;2.00;99.90;;;;;;5009875;28;20041;-49
2022/03/31 04:50:31;;;;;;;12.60;6.18;;;1.90;99.90;;;;;;5011373;28;20094;-44
2022/03/31 04:52:57;;;;;;;12.50;6.15;;;1.90;99.90;;;;;;5011265;28;20497;-46
2022/03/31 04:55:24;;;;;;;13.85;6.57;;;1.70;99.90;;;;;;5011139;28;20046;-46
2022/03/31 04:57:50;;;;;;;11.27;6.43;;;1.80;99.90;;;;;;5011234;28;20390;-45
2022/03/31 05:00:16;;;;;;;11.02;6.45;;;1.60;99.90;;;;;;4975636;28;20125;-47
2022/03/31 05:02:42;;;;;;;14.48;7.07;;;1.70;99.90;;;;;;4991393;28;20110;-45
2022/03/31 05:05:08;;;;;;;13.20;6.93;;;1.90;99.90;;;;;;5009406;28;20052;-47
2022/03/31 05:07:34;;;;;;;11.05;6.72;;;1.90;99.90;;;;;;5010523;28;20033;-45
2022/03/31 05:09:59;;;;;;;14.00;7.15;;;1.90;99.90;;;;;;4993691;28;20481;-48
2022/03/31 05:12:25;;;;;;;13.25;7.38;;;1.80;99.90;;;;;;5011361;28;20085;-46
2022/03/31 05:14:51;;;;;;;12.55;6.63;;;1.60;99.90;;;;;;4993876;28;20120;-45
2022/03/31 05:17:17;;;;;;;13.73;7.85;;;1.80;99.90;;;;;;5011113;28;20049;-47
2022/03/31 05:19:42;;;;;;;12.45;8.02;;;2.00;99.90;;;;;;4993295;28;20104;-45
2022/03/31 05:22:08;;;;;;;12.85;7.75;;;2.10;99.90;;;;;;5011185;28;20037;-45
2022/03/31 05:24:34;;;;;;;14.40;8.20;;;1.70;99.90;;;;;;5011108;28;20076;-43
2022/03/31 05:27:00;;;;;;;15.80;9.32;;;2.10;99.90;;;;;;5010655;28;20060;-47
2022/03/31 05:29:25;;;;;;;17.20;8.52;;;2.00;99.90;;;;;;5011008;28;20097;-49
2022/03/31 05:31:51;;;;;;;16.33;9.98;;;2.00;99.90;;;;;;4993121;28;20420;-50
2022/03/31 05:34:19;;;;;;;15.05;10.00;;;1.70;99.90;;;;;;5011203;28;20116;-46
2022/03/31 05:36:46;;;;;;;17.33;10.90;;;2.10;99.90;;;;;;4992508;28;20050;-44
2022/03/31 05:39:12;;;;;;;20.05;10.82;;;1.80;99.90;;;;;;5010957;28;20045;-48
2022/03/31 05:41:37;;;;;;;16.02;10.60;;;2.20;99.90;;;;;;5010793;28;20041;-45
2022/03/31 05:44:03;;;;;;;17.55;10.95;;;1.80;99.90;;;;;;5011308;28;20041;-48
2022/03/31 05:46:30;;;;;;;15.80;10.60;;;2.10;99.90;;;;;;5010677;28;20037;-46
2022/03/31 05:48:55;;;;;;;15.63;10.98;;;1.70;99.90;;;;;;5010689;28;20034;-44
2022/03/31 05:51:21;;;;;;;16.05;10.55;;;1.90;99.90;;;;;;5010792;28;20370;-48
2022/03/31 05:53:47;;;;;;;15.40;11.15;;;1.80;99.90;;;;;;5011955;28;20038;-47
2022/03/31 05:56:13;;;;;;;20.80;12.00;;;1.80;99.90;;;;;;5014476;28;20038;-46
2022/03/31 05:58:39;;;;;;;16.90;11.13;;;2.30;99.90;;;;;;5014812;28;20496;-46
2022/03/31 06:01:05;;;;;;;16.95;11.23;;;2.10;99.90;;;;;;5014861;28;20128;-47
2022/03/31 06:03:31;;;;;;;16.63;11.52;;;2.20;99.90;;;;;;5014498;28;20041;-46
2022/03/31 06:05:57;;;;;;;16.08;11.40;;;2.00;99.90;;;;;;5014795;28;20038;-43
2022/03/31 06:08:23;;;;;;;15.95;11.20;;;2.00;99.90;;;;;;4996789;28;20389;-45
2022/03/31 06:10:49;;;;;;;17.67;11.85;;;2.00;99.90;;;;;;5014555;28;20038;-45
2022/03/31 06:13:14;;;;;;;15.10;11.15;;;2.30;99.90;;;;;;5014385;28;20038;-44
2022/03/31 06:15:41;;;;;;;15.60;10.90;;;2.20;99.90;;;;;;4996804;28;20492;-46
2022/03/31 06:18:09;;;;;;;15.18;10.65;;;2.20;99.90;;;;;;5014224;28;20073;-44
2022/03/31 06:20:35;;;;;;;14.02;9.73;;;2.20;99.90;;;;;;5014334;28;20375;-46
2022/03/31 06:23:01;;;;;;;13.45;9.45;;;2.40;99.90;;;;;;5014137;28;20046;-46
2022/03/31 06:25:27;;;;;;;14.65;10.02;;;2.30;99.90;;;;;;5014001;28;20056;-47
2022/03/31 06:27:53;;;;;;;15.07;10.32;;;2.40;99.90;;;;;;5013870;28;20030;-46
2022/03/31 06:30:19;;;;;;;14.95;10.07;;;2.50;99.90;;;;;;5014106;28;20042;-46
2022/03/31 06:32:45;;;;;;;15.38;9.88;;;2.10;99.90;;;;;;5014231;28;20034;-46
2022/03/31 06:35:14;;;;;;;14.57;10.27;;;2.40;99.90;;;;;;5014071;28;20117;-47
2022/03/31 06:37:49;;;;;;;12.75;9.48;;;2.50;99.90;;;;;;5012070;28;20062;-47
2022/03/31 06:40:17;;;;;;;14.45;10.15;;;2.50;99.90;;;;;;5013528;28;20057;-46
2022/03/31 06:42:44;;;;;;;13.80;9.70;;;2.50;99.90;;;;;;5011966;28;20416;-46
2022/03/31 06:45:12;;;;;;;14.13;10.23;;;2.60;99.90;;;;;;5012917;28;20445;-50
2022/03/31 06:47:39;;;;;;;14.77;10.00;;;2.10;99.90;;;;;;5009028;28;20104;-48
2022/03/31 06:50:06;;;;;;;14.02;9.65;;;2.30;99.90;;;;;;5013092;28;20034;-45
2022/03/31 06:52:32;;;;;;;14.40;10.40;;;2.60;99.90;;;;;;5013275;28;20400;-44
2022/03/31 06:54:57;;;;;;;14.80;10.38;;;2.30;99.90;;;;;;4994419;28;20045;-44
2022/03/31 06:57:23;;;;;;;15.73;11.23;;;2.40;99.90;;;;;;5008243;28;20046;-44
2022/03/31 06:59:50;;;;;;;14.48;10.65;;;2.40;99.90;;;;;;4980898;28;20476;-44
2022/03/31 07:02:16;;;;;;;15.05;10.32;;;2.80;99.90;;;;;;4995691;28;20077;-47
2022/03/31 07:04:41;;;;;;;13.82;10.73;;;2.30;99.90;;;;;;5003959;28;20097;-42
2022/03/31 07:07:07;;;;;;;14.65;10.68;;;2.80;99.90;;;;;;5004799;28;20041;-43
2022/03/31 07:09:33;;;;;;;15.23;10.25;;;2.60;99.90;;;;;;5005238;28;20042;-48
2022/03/31 07:11:59;;;;;;;13.52;10.10;;;2.40;99.90;;;;;;5002508;28;20567;-45
2022/03/31 07:14:25;;;;;;;13.55;9.57;;;2.60;99.90;;;;;;4987455;28;20160;-46
2022/03/31 07:16:51;;;;;;;15.98;10.75;;;2.50;99.90;;;;;;5003391;28;20042;-48
2022/03/31 07:19:17;;;;;;;15.02;10.85;;;2.90;99.90;;;;;;5005657;28;20053;-45
2022/03/31 07:21:43;;;;;;;14.10;10.38;;;2.90;99.90;;;;;;5004668;28;20042;-46
2022/03/31 07:24:09;;;;;;;13.95;10.20;;;2.40;99.90;;;;;;5004175;28;20061;-46
2022/03/31 07:26:35;;;;;;;14.52;10.90;;;2.50;99.90;;;;;;5003641;28;20026;-49
2022/03/31 07:29:02;;;;;;;16.58;11.10;;;2.70;99.90;;;;;;5004798;28;20101;-45
2022/03/31 07:31:29;;;;;;;14.02;10.27;;;2.70;99.90;;;;;;4986952;28;20038;-47
2022/03/31 07:33:56;;;;;;;15.45;11.38;;;2.60;99.90;;;;;;5004997;28;20141;-47
2022/03/31 07:36:22;;;;;;;16.33;11.55;;;2.60;99.90;;;;;;4983472;28;20100;-47
2022/03/31 07:38:48;;;;;;;15.07;11.20;;;2.60;99.90;;;;;;4998107;28;20517;-45
2022/03/31 07:41:16;;;;;;;15.40;11.23;;;2.70;99.90;;;;;;5002326;28;20042;-44
2022/03/31 07:43:43;;;;;;;14.05;10.88;;;2.90;99.90;;;;;;5002301;28;20485;-43
2022/03/31 07:46:08;;;;;;;14.00;10.32;;;2.90;99.90;;;;;;5001885;28;20034;-43
2022/03/31 07:48:34;;;;;;;13.98;10.43;;;2.70;99.90;;;;;;5003074;28;20034;-45
2022/03/31 07:51:01;;;;;;;15.23;11.00;;;2.80;99.90;;;;;;5004646;28;20030;-43
2022/03/31 07:53:27;;;;;;;13.68;10.45;;;2.60;99.90;;;;;;5002903;28;20044;-48
2022/03/31 07:55:54;;;;;;;15.43;11.00;;;2.50;99.90;;;;;;5003455;28;20080;-46
2022/03/31 07:58:20;;;;;;;14.70;11.30;;;2.80;99.90;;;;;;5003163;28;20034;-45
2022/03/31 08:00:50;;;;;;;13.13;10.02;;;2.40;99.90;;;;;;5001197;28;20436;-44
2022/03/31 08:03:18;;;;;;;15.52;11.00;;;2.80;99.90;;;;;;5002114;28;20037;-44
2022/03/31 08:05:44;;;;;;;15.68;11.30;;;2.80;99.90;;;;;;4984945;28;20034;-46
2022/03/31 08:08:09;;;;;;;14.07;10.60;;;3.00;99.90;;;;;;5003167;28;20113;-47
2022/03/31 08:10:35;;;;;;;14.02;10.52;;;2.80;99.90;;;;;;5003327;28;20030;-44
2022/03/31 08:13:01;;;;;;;13.65;10.50;;;2.80;99.90;;;;;;4985407;28;20034;-47
2022/03/31 08:15:27;;;;;;;12.90;9.77;;;2.70;99.90;;;;;;5002540;28;20497;-46
2022/03/31 08:17:52;;;;;;;12.57;9.57;;;2.70;99.90;;;;;;5002741;28;20050;-42
2022/03/31 08:20:18;;;;;;;13.18;9.68;;;2.60;99.90;;;;;;5001662;28;20038;-47
2022/03/31 08:22:45;;;;;;;12.35;8.75;;;3.00;99.90;;;;;;5001586;28;20492;-45
2022/03/31 08:25:12;;;;;;;14.63;10.30;;;2.80;99.90;;;;;;5005752;28;20065;-48
2022/03/31 08:27:38;;;;;;;14.82;10.13;;;2.70;99.90;;;;;;4998894;28;20455;-45
2022/03/31 08:30:07;;;;;;;11.07;8.65;;;3.00;99.90;;;;;;4998897;28;20030;-43
2022/03/31 08:32:38;;;;;;;11.52;9.00;;;2.90;99.90;;;;;;4995053;28;20040;-45
2022/03/31 08:35:05;;;;;;;12.98;9.23;;;3.00;99.90;;;;;;4997405;28;20042;-43
2022/03/31 08:37:31;;;;;;;10.40;8.32;;;3.00;99.90;;;;;;4990563;28;20145;-46
2022/03/31 08:39:57;;;;;;;13.57;9.13;;;2.80;99.90;;;;;;4989494;28;20049;-45
2022/03/31 08:42:23;;;;;;;10.90;8.63;;;2.70;99.90;;;;;;4991154;28;20054;-46
2022/03/31 08:44:50;;;;;;;13.32;9.35;;;3.10;99.90;;;;;;4990628;28;20038;-43
2022/03/31 08:47:20;;;;;;;11.02;8.45;;;3.00;99.90;;;;;;4989534;28;20867;-46
2022/03/31 08:49:47;;;;;;;11.43;8.32;;;3.00;99.90;;;;;;4987103;28;20128;-46
2022/03/31 08:52:13;;;;;;;11.70;8.70;;;2.80;99.90;;;;;;4989369;28;20124;-46
2022/03/31 08:54:40;;;;;;;11.65;8.65;;;3.00;99.90;;;;;;4998022;28;20103;-46
2022/03/31 08:57:06;;;;;;;11.35;8.63;;;2.70;99.90;;;;;;5005703;28;20041;-44
2022/03/31 08:59:32;;;;;;;10.77;8.15;;;2.90;99.90;;;;;;5006121;28;20034;-46
2022/03/31 09:01:58;;;;;;;11.18;8.80;;;2.70;99.90;;;;;;5006749;28;20130;-47
2022/03/31 09:04:25;;;;;;;11.55;8.82;;;3.20;99.90;;;;;;4999444;28;20038;-47
2022/03/31 09:07:08;;;;;;;10.18;7.78;;;3.30;99.90;;;;;;4990366;28;20064;-45
2022/03/31 09:09:46;;;;;;;10.85;8.52;;;3.20;99.90;;;;;;4990550;28;20502;-50
2022/03/31 09:12:12;;;;;;;11.77;8.50;;;3.20;99.90;;;;;;4991634;28;20041;-47
2022/03/31 09:14:38;;;;;;;11.68;8.93;;;3.30;99.90;;;;;;4991671;28;20499;-47
2022/03/31 09:17:12;;;;;;;12.60;8.98;;;3.20;99.90;;;;;;4987309;28;20045;-44
2022/03/31 09:19:38;;;;;;;11.38;8.70;;;3.00;99.90;;;;;;4988847;28;20049;-46
2022/03/31 09:22:04;;;;;;;11.30;9.05;;;3.10;99.90;;;;;;4987190;28;20034;-44
2022/03/31 09:24:31;;;;;;;10.95;8.57;;;2.90;99.90;;;;;;4988804;28;20042;-44
2022/03/31 09:26:58;;;;;;;12.23;9.38;;;3.10;99.90;;;;;;4990571;28;20493;-48
2022/03/31 09:29:27;;;;;;;10.77;8.32;;;3.00;99.90;;;;;;4991558;28;20044;-45
2022/03/31 09:32:05;;;;;;;11.10;9.18;;;3.20;99.90;;;;;;4993674;28;20050;-45
2022/03/31 09:34:42;;;;;;;12.82;9.60;;;3.00;99.90;;;;;;4992720;28;20030;-48
2022/03/31 09:37:08;;;;;;;11.35;8.65;;;3.30;99.90;;;;;;4989403;28;20054;-42
2022/03/31 09:39:33;;;;;;;11.43;8.68;;;3.40;99.90;;;;;;4995499;28;20049;-45
2022/03/31 09:41:59;;;;;;;11.48;8.88;;;3.30;99.90;;;;;;4995926;28;20112;-46
2022/03/31 09:44:25;;;;;;;10.68;8.30;;;3.10;99.90;;;;;;4995351;28;20374;-47
2022/03/31 09:46:52;;;;;;;10.95;8.40;;;3.20;99.90;;;;;;4994636;28;20476;-43
2022/03/31 09:49:24;;;;;;;11.40;8.35;;;3.20;99.90;;;;;;4995849;28;20523;-46
2022/03/31 09:51:57;;;;;;;10.20;8.00;;;3.00;99.90;;;;;;4993310;28;21555;-45
2022/03/31 09:54:26;;;;;;;8.85;6.82;;;3.30;99.90;;;;;;4990177;28;20129;-46
2022/03/31 09:56:56;;;;;;;10.02;7.43;;;2.90;99.90;;;;;;4990223;28;20305;-45
2022/03/31 09:59:32;;;;;;;9.20;7.05;;;3.00;99.90;;;;;;4988220;28;20069;-44
2022/03/31 10:01:59;;;;;;;9.65;7.15;;;3.10;99.90;;;;;;4992335;28;20042;-46
2022/03/31 10:04:25;;;;;;;8.38;6.65;;;3.00;99.90;;;;;;4990601;28;20097;-44
2022/03/31 10:06:51;;;;;;;9.20;6.47;;;2.80;99.90;;;;;;4990484;28;20204;-45
2022/03/31 10:09:17;;;;;;;8.85;6.93;;;3.20;99.90;;;;;;4991764;28;20560;-45
2022/03/31 10:11:45;;;;;;;8.27;6.40;;;2.90;99.90;;;;;;4978498;28;20040;-47
2022/03/31 10:14:17;;;;;;;9.13;6.70;;;2.90;99.90;;;;;;4995481;28;20034;-44
2022/03/31 10:17:00;;;;;;;7.97;6.05;;;3.20;99.90;;;;;;4998500;28;21380;-42
2022/03/31 10:19:31;;;;;;;7.40;5.32;;;3.20;99.90;;;;;;4990354;28;20514;-44
2022/03/31 10:21:59;;;;;;;5.95;4.55;;;3.30;99.90;;;;;;4993121;28;20041;-43
2022/03/31 10:24:41;;;;;;;5.75;4.07;;;2.80;99.90;;;;;;4994048;28;20038;-45
2022/03/31 10:27:07;;;;;;;6.47;4.70;;;3.00;99.90;;;;;;4994169;28;20030;-46
2022/03/31 10:29:41;;;;;;;6.22;4.25;;;2.70;99.90;;;;;;4988043;28;20113;-48
2022/03/31 10:32:14;;;;;;;6.18;4.13;;;2.70;99.90;;;;;;4986423;28;20129;-44
2022/03/31 10:34:48;;;;;;;6.88;4.35;;;2.70;99.90;;;;;;4994414;28;20128;-45
2022/03/31 10:37:17;;;;;;;5.25;3.65;;;2.60;99.90;;;;;;4990947;28;20062;-45
2022/03/31 10:39:55;;;;;;;5.85;3.80;;;2.70;99.90;;;;;;4976667;28;20125;-46
2022/03/31 10:42:22;;;;;;;5.53;3.65;;;2.70;99.90;;;;;;4980519;28;20042;-44
2022/03/31 10:44:48;;;;;;;7.25;4.00;;;2.50;99.90;;;;;;4976815;28;20576;-48
2022/03/31 10:47:14;;;;;;;5.60;4.15;;;2.50;99.90;;;;;;4964544;28;20027;-45
2022/03/31 10:49:51;;;;;;;6.32;4.20;;;2.50;99.90;;;;;;4968335;28;20089;-45
2022/03/31 10:52:23;;;;;;;5.85;3.92;;;2.70;99.90;;;;;;4966964;28;20038;-45
2022/03/31 10:54:50;;;;;;;5.15;3.63;;;2.50;99.90;;;;;;4944392;28;20073;-43
2022/03/31 10:57:17;;;;;;;6.22;3.80;;;2.20;99.90;;;;;;4964850;28;20042;-48
2022/03/31 10:59:45;;;;;;;6.35;4.28;;;2.70;99.90;;;;;;4976576;28;20496;-47
2022/03/31 11:02:21;;;;;;;5.78;4.03;;;2.40;99.90;;;;;;4977326;28;20047;-46
2022/03/31 11:04:51;;;;;;;7.55;4.18;;;2.60;99.90;;;;;;4972738;28;20042;-47
2022/03/31 11:07:24;;;;;;;6.95;4.05;;;2.50;99.90;;;;;;4973039;28;20038;-46
2022/03/31 11:10:15;;;;;;;6.65;4.30;;;2.40;99.90;;;;;;4978686;28;20172;-48
2022/03/31 11:12:42;;;;;;;9.23;4.95;;;2.60;99.90;;;;;;4970067;28;20524;-46
2022/03/31 11:15:09;;;;;;;6.32;4.20;;;2.60;99.90;;;;;;4965872;28;20129;-43
2022/03/31 11:17:37;;;;;;;6.60;4.40;;;2.30;99.90;;;;;;4971278;28;20066;-46
2022/03/31 11:20:21;;;;;;;8.05;5.35;;;2.70;99.90;;;;;;4968850;28;20039;-43
2022/03/31 11:22:59;;;;;;;6.35;4.15;;;2.50;99.90;;;;;;4968661;28;20038;-44
2022/03/31 11:25:25;;;;;;;6.13;4.32;;;2.60;99.90;;;;;;4968241;28;20122;-46
2022/03/31 11:27:52;;;;;;;6.63;4.60;;;2.20;99.90;;;;;;4968072;28;20042;-44
2022/03/31 11:30:22;;;;;;;6.45;4.68;;;2.40;99.90;;;;;;4968727;28;20089;-47
2022/03/31 11:32:52;;;;;;;6.75;4.65;;;2.30;99.90;;;;;;4948284;28;20078;-47
2022/03/31 11:35:20;;;;;;;7.15;5.32;;;2.20;99.90;;;;;;4966895;28;20073;-45
2022/03/31 11:37:49;;;;;;;9.00;5.07;;;2.00;99.90;;;;;;4972757;28;20062;-44
2022/03/31 11:40:26;;;;;;;7.47;4.47;;;2.40;99.90;;;;;;4959527;28;20164;-45
2022/03/31 11:42:53;;;;;;;7.00;4.75;;;2.10;99.90;;;;;;4963411;28;20042;-46
2022/03/31 11:45:38;;;;;;;6.90;4.75;;;2.20;99.90;;;;;;4961470;28;20031;-47
2022/03/31 11:48:05;;;;;;;6.25;4.30;;;2.00;99.90;;;;;;4961741;28;20078;-44
2022/03/31 11:50:34;;;;;;;7.65;4.57;;;2.20;99.90;;;;;;4929813;28;20101;-45
2022/03/31 11:53:00;;;;;;;7.50;4.68;;;1.90;99.90;;;;;;4953995;28;20117;-44
2022/03/31 11:55:27;;;;;;;6.78;4.63;;;1.80;99.90;;;;;;4961289;28;20458;-46
2022/03/31 11:57:55;;;;;;;7.68;4.93;;;1.90;99.90;;;;;;4959348;28;20512;-43
2022/03/31 12:00:22;;;;;;;7.95;5.10;;;1.70;99.90;;;;;;4956004;28;20138;-47
2022/03/31 12:03:09;;;;;;;6.68;4.43;;;1.80;99.90;;;;;;4946000;28;20134;-44
2022/03/31 12:05:35;;;;;;;7.18;4.60;;;1.90;99.90;;;;;;4961745;28;20038;-45
2022/03/31 12:08:02;;;;;;;6.97;4.70;;;2.20;99.90;;;;;;4961825;28;20042;-46
2022/03/31 12:10:29;;;;;;;7.05;4.53;;;1.70;99.90;;;;;;4962025;28;20150;-45
2022/03/31 12:12:56;;;;;;;8.10;4.78;;;1.80;99.90;;;;;;4959952;28;20220;-45
2022/03/31 12:15:28;;;;;;;6.85;4.60;;;1.80;99.90;;;;;;4959214;28;20062;-49
2022/03/31 12:18:08;;;;;;;7.28;4.00;;;1.90;99.90;;;;;;4961669;28;20088;-44
2022/03/31 12:20:37;;;;;;;6.55;4.05;;;1.80;99.90;;;;;;4960307;28;20039;-42
2022/03/31 12:23:16;;;;;;;7.80;5.00;;;1.80;99.90;;;;;;4958349;28;20851;-46
2022/03/31 12:25:42;;;;;;;6.95;4.78;;;1.80;99.90;;;;;;4958985;28;20051;-46
2022/03/31 12:28:08;;;;;;;7.25;4.57;;;1.60;99.90;;;;;;4960775;28;20075;-44
2022/03/31 12:30:38;;;;;;;7.15;4.68;;;1.50;99.90;;;;;;4963726;28;20406;-45
2022/03/31 12:33:03;;;;;;;7.93;5.00;;;1.60;99.90;;;;;;4965763;28;20382;-44
2022/03/31 12:35:31;;;;;;;6.97;4.60;;;1.80;99.90;;;;;;4971110;28;20045;-49
2022/03/31 12:37:56;;;;;;;9.07;5.50;;;1.80;99.90;;;;;;4988423;28;20093;-45
2022/03/31 12:40:25;;;;;;;7.43;5.28;;;1.60;99.90;;;;;;4999585;28;20045;-46
2022/03/31 12:42:57;;;;;;;9.35;6.07;;;1.60;99.90;;;;;;4998803;28;20285;-44
2022/03/31 12:45:24;;;;;;;9.15;6.03;;;1.50;99.90;;;;;;4998135;28;20171;-45
2022/03/31 12:47:50;;;;;;;10.07;6.00;;;1.40;99.90;;;;;;4997627;28;20036;-47
2022/03/31 12:50:21;;;;;;;11.32;6.60;;;1.50;99.90;;;;;;4999982;28;20042;-47
2022/03/31 12:53:01;;;;;;;9.57;6.00;;;1.90;99.90;;;;;;4997431;28;20034;-44
2022/03/31 12:55:31;;;;;;;8.52;5.80;;;1.60;99.90;;;;;;4998942;28;20425;-43